sensor_id;sensor_type;location;lat;lon;timestamp;P1;durP1;ratioP1;P2;durP2;ratioP2
9815;SDS011;4947;44.526;11.360;2023-02-20T00:01:44;69.55;;;36.40;;
9815;SDS011;4947;44.526;11.360;2023-02-20T00:04:12;62.42;;;33.92;;
9815;SDS011;4947;44.526;11.360;2023-02-20T00:06:40;70.07;;;34.67;;
9815;SDS011;4947;44.526;11.360;2023-02-20T00:09:07;68.32;;;34.42;;
9815;SDS011;4947;44.526;11.360;2023-02-20T00:11:35;65.00;;;35.53;;
9815;SDS011;4947;44.526;11.360;2023-02-20T00:14:04;70.68;;;36.47;;
9815;SDS011;4947;44.526;11.360;2023-02-20T00:16:31;69.00;;;35.03;;
9815;SDS011;4947;44.526;11.360;2023-02-20T00:19:01;68.20;;;36.47;;
9815;SDS011;4947;44.526;11.360;2023-02-20T00:21:29;70.50;;;34.83;;
9815;SDS011;4947;44.526;11.360;2023-02-20T00:23:58;68.88;;;35.85;;
9815;SDS011;4947;44.526;11.360;2023-02-20T00:26:26;69.17;;;36.47;;
9815;SDS011;4947;44.526;11.360;2023-02-20T00:28:54;67.25;;;36.38;;
9815;SDS011;4947;44.526;11.360;2023-02-20T00:31:21;70.05;;;36.25;;
9815;SDS011;4947;44.526;11.360;2023-02-20T00:33:49;65.97;;;34.10;;
9815;SDS011;4947;44.526;11.360;2023-02-20T00:36:19;68.97;;;36.50;;
9815;SDS011;4947;44.526;11.360;2023-02-20T00:38:47;64.07;;;34.55;;
9815;SDS011;4947;44.526;11.360;2023-02-20T00:41:15;63.72;;;33.42;;
9815;SDS011;4947;44.526;11.360;2023-02-20T00:43:43;66.70;;;34.22;;
9815;SDS011;4947;44.526;11.360;2023-02-20T00:46:11;67.68;;;33.88;;
9815;SDS011;4947;44.526;11.360;2023-02-20T00:48:38;67.03;;;34.92;;
9815;SDS011;4947;44.526;11.360;2023-02-20T00:51:07;74.05;;;34.08;;
9815;SDS011;4947;44.526;11.360;2023-02-20T00:53:36;76.47;;;37.33;;
9815;SDS011;4947;44.526;11.360;2023-02-20T00:56:04;72.43;;;37.03;;
9815;SDS011;4947;44.526;11.360;2023-02-20T00:58:32;68.47;;;36.13;;
9815;SDS011;4947;44.526;11.360;2023-02-20T01:00:59;72.00;;;36.30;;
9815;SDS011;4947;44.526;11.360;2023-02-20T01:03:27;77.53;;;38.23;;
9815;SDS011;4947;44.526;11.360;2023-02-20T01:05:58;65.85;;;35.80;;
9815;SDS011;4947;44.526;11.360;2023-02-20T01:08:25;73.57;;;37.05;;
9815;SDS011;4947;44.526;11.360;2023-02-20T01:10:55;73.55;;;41.92;;
9815;SDS011;4947;44.526;11.360;2023-02-20T01:13:23;72.73;;;37.77;;
9815;SDS011;4947;44.526;11.360;2023-02-20T01:15:51;70.65;;;37.92;;
9815;SDS011;4947;44.526;11.360;2023-02-20T01:18:18;71.70;;;36.90;;
9815;SDS011;4947;44.526;11.360;2023-02-20T01:20:49;82.00;;;39.47;;
9815;SDS011;4947;44.526;11.360;2023-02-20T01:23:18;80.47;;;39.20;;
9815;SDS011;4947;44.526;11.360;2023-02-20T01:25:45;76.32;;;38.80;;
9815;SDS011;4947;44.526;11.360;2023-02-20T01:28:14;79.85;;;40.17;;
9815;SDS011;4947;44.526;11.360;2023-02-20T01:30:42;78.03;;;42.13;;
9815;SDS011;4947;44.526;11.360;2023-02-20T01:33:12;79.80;;;39.63;;
9815;SDS011;4947;44.526;11.360;2023-02-20T01:35:40;85.95;;;40.75;;
9815;SDS011;4947;44.526;11.360;2023-02-20T01:38:10;80.07;;;41.30;;
9815;SDS011;4947;44.526;11.360;2023-02-20T01:40:37;85.17;;;43.60;;
9815;SDS011;4947;44.526;11.360;2023-02-20T01:43:05;78.13;;;39.77;;
9815;SDS011;4947;44.526;11.360;2023-02-20T01:45:35;81.97;;;41.97;;
9815;SDS011;4947;44.526;11.360;2023-02-20T01:48:03;87.32;;;41.08;;
9815;SDS011;4947;44.526;11.360;2023-02-20T01:50:33;90.10;;;42.55;;
9815;SDS011;4947;44.526;11.360;2023-02-20T01:53:09;84.68;;;41.95;;
9815;SDS011;4947;44.526;11.360;2023-02-20T01:55:41;78.30;;;42.33;;
9815;SDS011;4947;44.526;11.360;2023-02-20T01:58:14;86.30;;;42.00;;
9815;SDS011;4947;44.526;11.360;2023-02-20T02:00:49;84.50;;;40.60;;
9815;SDS011;4947;44.526;11.360;2023-02-20T02:03:17;80.27;;;42.20;;
9815;SDS011;4947;44.526;11.360;2023-02-20T02:05:48;86.80;;;44.37;;
9815;SDS011;4947;44.526;11.360;2023-02-20T02:08:20;78.37;;;40.90;;
9815;SDS011;4947;44.526;11.360;2023-02-20T02:10:51;79.37;;;42.50;;
9815;SDS011;4947;44.526;11.360;2023-02-20T02:13:23;82.13;;;39.00;;
9815;SDS011;4947;44.526;11.360;2023-02-20T02:15:52;78.82;;;39.47;;
9815;SDS011;4947;44.526;11.360;2023-02-20T02:18:38;90.53;;;43.77;;
9815;SDS011;4947;44.526;11.360;2023-02-20T02:24:34;79.33;;;40.93;;
9815;SDS011;4947;44.526;11.360;2023-02-20T02:27:38;83.60;;;41.65;;
9815;SDS011;4947;44.526;11.360;2023-02-20T02:33:52;83.50;;;43.50;;
9815;SDS011;4947;44.526;11.360;2023-02-20T02:36:50;85.07;;;43.15;;
9815;SDS011;4947;44.526;11.360;2023-02-20T02:39:25;85.20;;;41.05;;
9815;SDS011;4947;44.526;11.360;2023-02-20T02:42:04;79.53;;;41.03;;
9815;SDS011;4947;44.526;11.360;2023-02-20T02:44:38;78.50;;;39.78;;
9815;SDS011;4947;44.526;11.360;2023-02-20T02:47:11;81.47;;;40.63;;
9815;SDS011;4947;44.526;11.360;2023-02-20T02:49:45;76.10;;;38.50;;
9815;SDS011;4947;44.526;11.360;2023-02-20T02:52:18;81.07;;;37.97;;
9815;SDS011;4947;44.526;11.360;2023-02-20T02:55:01;73.05;;;39.15;;
9815;SDS011;4947;44.526;11.360;2023-02-20T02:57:31;75.18;;;40.03;;
9815;SDS011;4947;44.526;11.360;2023-02-20T02:59:59;74.15;;;38.10;;
9815;SDS011;4947;44.526;11.360;2023-02-20T03:02:31;79.45;;;38.35;;
9815;SDS011;4947;44.526;11.360;2023-02-20T03:05:03;73.65;;;37.10;;
9815;SDS011;4947;44.526;11.360;2023-02-20T03:07:35;72.07;;;35.45;;
9815;SDS011;4947;44.526;11.360;2023-02-20T03:10:06;64.75;;;36.63;;
9815;SDS011;4947;44.526;11.360;2023-02-20T03:12:37;60.33;;;32.45;;
9815;SDS011;4947;44.526;11.360;2023-02-20T03:15:09;63.40;;;34.15;;
9815;SDS011;4947;44.526;11.360;2023-02-20T03:18:02;57.28;;;33.42;;
9815;SDS011;4947;44.526;11.360;2023-02-20T03:20:36;66.93;;;34.55;;
9815;SDS011;4947;44.526;11.360;2023-02-20T03:23:10;69.32;;;35.65;;
9815;SDS011;4947;44.526;11.360;2023-02-20T03:25:43;67.90;;;34.47;;
9815;SDS011;4947;44.526;11.360;2023-02-20T03:28:16;76.38;;;35.22;;
9815;SDS011;4947;44.526;11.360;2023-02-20T03:30:48;68.50;;;37.50;;
9815;SDS011;4947;44.526;11.360;2023-02-20T03:33:20;71.90;;;38.10;;
9815;SDS011;4947;44.526;11.360;2023-02-20T03:36:08;70.28;;;35.95;;
9815;SDS011;4947;44.526;11.360;2023-02-20T03:38:59;69.28;;;36.38;;
9815;SDS011;4947;44.526;11.360;2023-02-20T03:41:46;74.53;;;37.28;;
9815;SDS011;4947;44.526;11.360;2023-02-20T03:44:33;68.00;;;36.53;;
9815;SDS011;4947;44.526;11.360;2023-02-20T03:47:02;74.38;;;38.08;;
9815;SDS011;4947;44.526;11.360;2023-02-20T03:49:34;72.35;;;37.45;;
9815;SDS011;4947;44.526;11.360;2023-02-20T03:52:04;68.40;;;36.67;;
9815;SDS011;4947;44.526;11.360;2023-02-20T03:54:33;66.07;;;35.03;;
9815;SDS011;4947;44.526;11.360;2023-02-20T03:57:04;67.93;;;35.83;;
9815;SDS011;4947;44.526;11.360;2023-02-20T03:59:35;62.08;;;35.38;;
9815;SDS011;4947;44.526;11.360;2023-02-20T04:02:08;63.28;;;34.63;;
9815;SDS011;4947;44.526;11.360;2023-02-20T04:04:41;68.20;;;35.95;;
9815;SDS011;4947;44.526;11.360;2023-02-20T04:07:13;73.38;;;36.70;;
9815;SDS011;4947;44.526;11.360;2023-02-20T04:09:45;70.15;;;36.58;;
9815;SDS011;4947;44.526;11.360;2023-02-20T04:12:15;68.53;;;34.50;;
9815;SDS011;4947;44.526;11.360;2023-02-20T04:14:48;69.40;;;36.97;;
9815;SDS011;4947;44.526;11.360;2023-02-20T04:17:19;68.78;;;35.97;;
9815;SDS011;4947;44.526;11.360;2023-02-20T04:19:49;72.57;;;37.17;;
9815;SDS011;4947;44.526;11.360;2023-02-20T04:22:18;69.22;;;34.40;;
9815;SDS011;4947;44.526;11.360;2023-02-20T04:24:53;72.80;;;36.80;;
9815;SDS011;4947;44.526;11.360;2023-02-20T04:27:24;74.33;;;37.67;;
9815;SDS011;4947;44.526;11.360;2023-02-20T04:29:52;60.03;;;35.00;;
9815;SDS011;4947;44.526;11.360;2023-02-20T04:32:19;73.30;;;35.72;;
9815;SDS011;4947;44.526;11.360;2023-02-20T04:34:47;62.22;;;34.78;;
9815;SDS011;4947;44.526;11.360;2023-02-20T04:37:16;69.25;;;37.65;;
9815;SDS011;4947;44.526;11.360;2023-02-20T04:39:44;69.88;;;36.75;;
9815;SDS011;4947;44.526;11.360;2023-02-20T04:42:13;65.80;;;34.38;;
9815;SDS011;4947;44.526;11.360;2023-02-20T04:44:41;68.18;;;36.05;;
9815;SDS011;4947;44.526;11.360;2023-02-20T04:47:10;60.58;;;33.53;;
9815;SDS011;4947;44.526;11.360;2023-02-20T04:49:40;62.35;;;34.05;;
9815;SDS011;4947;44.526;11.360;2023-02-20T04:52:07;60.42;;;32.22;;
9815;SDS011;4947;44.526;11.360;2023-02-20T04:54:35;59.95;;;31.80;;
9815;SDS011;4947;44.526;11.360;2023-02-20T04:57:02;65.55;;;34.20;;
9815;SDS011;4947;44.526;11.360;2023-02-20T04:59:31;54.33;;;30.58;;
9815;SDS011;4947;44.526;11.360;2023-02-20T05:01:59;64.05;;;34.63;;
9815;SDS011;4947;44.526;11.360;2023-02-20T05:04:27;56.70;;;32.13;;
9815;SDS011;4947;44.526;11.360;2023-02-20T05:06:54;58.55;;;31.95;;
9815;SDS011;4947;44.526;11.360;2023-02-20T05:09:23;59.00;;;31.30;;
9815;SDS011;4947;44.526;11.360;2023-02-20T05:11:51;63.50;;;31.65;;
9815;SDS011;4947;44.526;11.360;2023-02-20T05:14:19;59.67;;;32.13;;
9815;SDS011;4947;44.526;11.360;2023-02-20T05:16:48;61.00;;;32.78;;
9815;SDS011;4947;44.526;11.360;2023-02-20T05:19:16;59.45;;;32.15;;
9815;SDS011;4947;44.526;11.360;2023-02-20T05:21:44;61.85;;;31.40;;
9815;SDS011;4947;44.526;11.360;2023-02-20T05:24:29;54.53;;;30.25;;
9815;SDS011;4947;44.526;11.360;2023-02-20T05:26:58;55.05;;;31.55;;
9815;SDS011;4947;44.526;11.360;2023-02-20T05:29:26;55.28;;;30.45;;
9815;SDS011;4947;44.526;11.360;2023-02-20T05:31:55;55.80;;;28.73;;
9815;SDS011;4947;44.526;11.360;2023-02-20T05:34:23;56.95;;;29.75;;
9815;SDS011;4947;44.526;11.360;2023-02-20T05:36:51;56.53;;;30.83;;
9815;SDS011;4947;44.526;11.360;2023-02-20T05:39:19;61.63;;;31.13;;
9815;SDS011;4947;44.526;11.360;2023-02-20T05:41:47;53.40;;;30.58;;
9815;SDS011;4947;44.526;11.360;2023-02-20T05:44:15;54.22;;;30.48;;
9815;SDS011;4947;44.526;11.360;2023-02-20T05:46:42;77.30;;;31.52;;
9815;SDS011;4947;44.526;11.360;2023-02-20T05:49:12;58.58;;;30.95;;
9815;SDS011;4947;44.526;11.360;2023-02-20T05:51:40;57.58;;;30.45;;
9815;SDS011;4947;44.526;11.360;2023-02-20T05:54:08;55.83;;;30.95;;
9815;SDS011;4947;44.526;11.360;2023-02-20T05:56:39;57.80;;;32.28;;
9815;SDS011;4947;44.526;11.360;2023-02-20T05:59:07;55.83;;;32.45;;
9815;SDS011;4947;44.526;11.360;2023-02-20T06:01:35;56.92;;;31.52;;
9815;SDS011;4947;44.526;11.360;2023-02-20T06:04:03;63.80;;;33.08;;
9815;SDS011;4947;44.526;11.360;2023-02-20T06:06:33;56.45;;;32.78;;
9815;SDS011;4947;44.526;11.360;2023-02-20T06:09:03;59.35;;;33.30;;
9815;SDS011;4947;44.526;11.360;2023-02-20T06:11:32;60.15;;;33.92;;
9815;SDS011;4947;44.526;11.360;2023-02-20T06:14:00;62.60;;;31.83;;
9815;SDS011;4947;44.526;11.360;2023-02-20T06:16:28;60.75;;;34.78;;
9815;SDS011;4947;44.526;11.360;2023-02-20T06:18:56;64.75;;;37.45;;
9815;SDS011;4947;44.526;11.360;2023-02-20T06:21:25;65.50;;;35.50;;
9815;SDS011;4947;44.526;11.360;2023-02-20T06:23:55;71.93;;;37.00;;
9815;SDS011;4947;44.526;11.360;2023-02-20T06:26:23;67.60;;;36.85;;
9815;SDS011;4947;44.526;11.360;2023-02-20T06:28:50;64.75;;;35.45;;
9815;SDS011;4947;44.526;11.360;2023-02-20T06:31:21;57.80;;;34.00;;
9815;SDS011;4947;44.526;11.360;2023-02-20T06:33:50;69.82;;;35.83;;
9815;SDS011;4947;44.526;11.360;2023-02-20T06:36:19;63.15;;;34.72;;
9815;SDS011;4947;44.526;11.360;2023-02-20T06:38:48;61.90;;;36.10;;
9815;SDS011;4947;44.526;11.360;2023-02-20T06:41:17;70.38;;;36.67;;
9815;SDS011;4947;44.526;11.360;2023-02-20T06:43:45;70.45;;;36.92;;
9815;SDS011;4947;44.526;11.360;2023-02-20T06:46:13;69.38;;;35.53;;
9815;SDS011;4947;44.526;11.360;2023-02-20T06:48:44;68.60;;;35.28;;
9815;SDS011;4947;44.526;11.360;2023-02-20T06:51:15;60.25;;;32.30;;
9815;SDS011;4947;44.526;11.360;2023-02-20T06:53:43;60.72;;;33.05;;
9815;SDS011;4947;44.526;11.360;2023-02-20T06:56:13;60.30;;;32.25;;
9815;SDS011;4947;44.526;11.360;2023-02-20T06:58:46;68.65;;;34.53;;
9815;SDS011;4947;44.526;11.360;2023-02-20T07:01:14;58.83;;;31.95;;
9815;SDS011;4947;44.526;11.360;2023-02-20T07:03:42;66.90;;;32.72;;
9815;SDS011;4947;44.526;11.360;2023-02-20T07:06:10;59.72;;;33.17;;
9815;SDS011;4947;44.526;11.360;2023-02-20T07:08:38;57.38;;;32.53;;
9815;SDS011;4947;44.526;11.360;2023-02-20T07:11:06;55.97;;;31.70;;
9815;SDS011;4947;44.526;11.360;2023-02-20T07:13:34;59.72;;;31.70;;
9815;SDS011;4947;44.526;11.360;2023-02-20T07:16:04;49.95;;;28.48;;
9815;SDS011;4947;44.526;11.360;2023-02-20T07:18:32;55.70;;;29.10;;
9815;SDS011;4947;44.526;11.360;2023-02-20T07:21:00;52.22;;;26.90;;
9815;SDS011;4947;44.526;11.360;2023-02-20T07:23:27;48.97;;;26.27;;
9815;SDS011;4947;44.526;11.360;2023-02-20T07:25:55;50.60;;;26.13;;
9815;SDS011;4947;44.526;11.360;2023-02-20T07:28:23;45.17;;;24.25;;
9815;SDS011;4947;44.526;11.360;2023-02-20T07:30:51;53.45;;;26.27;;
9815;SDS011;4947;44.526;11.360;2023-02-20T07:33:20;44.08;;;26.08;;
9815;SDS011;4947;44.526;11.360;2023-02-20T07:35:48;44.17;;;24.38;;
9815;SDS011;4947;44.526;11.360;2023-02-20T07:38:16;41.63;;;24.33;;
9815;SDS011;4947;44.526;11.360;2023-02-20T07:40:43;54.58;;;26.45;;
9815;SDS011;4947;44.526;11.360;2023-02-20T07:43:11;44.40;;;25.38;;
9815;SDS011;4947;44.526;11.360;2023-02-20T07:45:39;49.00;;;25.75;;
9815;SDS011;4947;44.526;11.360;2023-02-20T07:48:06;43.67;;;25.48;;
9815;SDS011;4947;44.526;11.360;2023-02-20T07:50:36;46.85;;;26.25;;
9815;SDS011;4947;44.526;11.360;2023-02-20T07:53:03;50.13;;;26.80;;
9815;SDS011;4947;44.526;11.360;2023-02-20T07:55:32;48.90;;;26.48;;
9815;SDS011;4947;44.526;11.360;2023-02-20T07:57:59;44.83;;;23.20;;
9815;SDS011;4947;44.526;11.360;2023-02-20T08:00:27;38.83;;;22.73;;
9815;SDS011;4947;44.526;11.360;2023-02-20T08:02:55;48.75;;;24.40;;
9815;SDS011;4947;44.526;11.360;2023-02-20T08:05:23;38.10;;;21.88;;
9815;SDS011;4947;44.526;11.360;2023-02-20T08:07:52;30.13;;;14.85;;
9815;SDS011;4947;44.526;11.360;2023-02-20T08:10:21;24.30;;;13.82;;
9815;SDS011;4947;44.526;11.360;2023-02-20T08:12:50;25.58;;;12.68;;
9815;SDS011;4947;44.526;11.360;2023-02-20T08:15:19;22.17;;;13.15;;
9815;SDS011;4947;44.526;11.360;2023-02-20T08:17:48;27.00;;;15.43;;
9815;SDS011;4947;44.526;11.360;2023-02-20T08:20:16;26.88;;;14.32;;
9815;SDS011;4947;44.526;11.360;2023-02-20T08:22:46;29.70;;;15.90;;
9815;SDS011;4947;44.526;11.360;2023-02-20T08:25:16;33.25;;;14.88;;
9815;SDS011;4947;44.526;11.360;2023-02-20T08:27:45;32.33;;;15.55;;
9815;SDS011;4947;44.526;11.360;2023-02-20T08:30:16;35.53;;;16.58;;
9815;SDS011;4947;44.526;11.360;2023-02-20T08:32:47;33.13;;;17.27;;
9815;SDS011;4947;44.526;11.360;2023-02-20T08:35:16;28.75;;;15.48;;
9815;SDS011;4947;44.526;11.360;2023-02-20T08:37:44;33.38;;;17.55;;
9815;SDS011;4947;44.526;11.360;2023-02-20T08:40:12;23.63;;;14.95;;
9815;SDS011;4947;44.526;11.360;2023-02-20T08:42:42;29.58;;;14.20;;
9815;SDS011;4947;44.526;11.360;2023-02-20T08:45:12;22.77;;;13.48;;
9815;SDS011;4947;44.526;11.360;2023-02-20T08:47:40;26.02;;;16.08;;
9815;SDS011;4947;44.526;11.360;2023-02-20T08:50:09;36.42;;;18.33;;
9815;SDS011;4947;44.526;11.360;2023-02-20T08:52:37;40.20;;;18.25;;
9815;SDS011;4947;44.526;11.360;2023-02-20T08:55:04;33.63;;;17.92;;
9815;SDS011;4947;44.526;11.360;2023-02-20T08:57:33;34.30;;;17.27;;
9815;SDS011;4947;44.526;11.360;2023-02-20T09:00:02;34.05;;;19.45;;
9815;SDS011;4947;44.526;11.360;2023-02-20T09:02:32;45.42;;;20.50;;
9815;SDS011;4947;44.526;11.360;2023-02-20T09:04:59;39.80;;;21.90;;
9815;SDS011;4947;44.526;11.360;2023-02-20T09:07:28;42.03;;;21.95;;
9815;SDS011;4947;44.526;11.360;2023-02-20T09:09:55;43.70;;;24.40;;
9815;SDS011;4947;44.526;11.360;2023-02-20T09:12:23;39.58;;;22.70;;
9815;SDS011;4947;44.526;11.360;2023-02-20T09:14:51;43.33;;;23.65;;
9815;SDS011;4947;44.526;11.360;2023-02-20T09:17:20;42.75;;;23.85;;
9815;SDS011;4947;44.526;11.360;2023-02-20T09:19:47;43.30;;;24.55;;
9815;SDS011;4947;44.526;11.360;2023-02-20T09:22:15;41.40;;;25.42;;
9815;SDS011;4947;44.526;11.360;2023-02-20T09:24:47;45.88;;;23.52;;
9815;SDS011;4947;44.526;11.360;2023-02-20T09:27:14;44.35;;;25.42;;
9815;SDS011;4947;44.526;11.360;2023-02-20T09:29:42;43.55;;;23.92;;
9815;SDS011;4947;44.526;11.360;2023-02-20T09:32:10;43.83;;;24.80;;
9815;SDS011;4947;44.526;11.360;2023-02-20T09:34:39;40.55;;;23.77;;
9815;SDS011;4947;44.526;11.360;2023-02-20T09:37:07;47.10;;;25.85;;
9815;SDS011;4947;44.526;11.360;2023-02-20T09:39:34;41.22;;;25.05;;
9815;SDS011;4947;44.526;11.360;2023-02-20T09:42:05;42.92;;;26.20;;
9815;SDS011;4947;44.526;11.360;2023-02-20T09:44:41;46.55;;;25.88;;
9815;SDS011;4947;44.526;11.360;2023-02-20T09:47:21;42.38;;;24.38;;
9815;SDS011;4947;44.526;11.360;2023-02-20T09:49:59;46.50;;;24.95;;
9815;SDS011;4947;44.526;11.360;2023-02-20T09:52:29;43.40;;;24.02;;
9815;SDS011;4947;44.526;11.360;2023-02-20T09:55:00;43.70;;;24.02;;
9815;SDS011;4947;44.526;11.360;2023-02-20T09:57:30;49.28;;;25.27;;
9815;SDS011;4947;44.526;11.360;2023-02-20T10:00:02;53.80;;;28.30;;
9815;SDS011;4947;44.526;11.360;2023-02-20T10:02:35;40.10;;;25.48;;
9815;SDS011;4947;44.526;11.360;2023-02-20T10:05:10;42.08;;;25.77;;
9815;SDS011;4947;44.526;11.360;2023-02-20T10:07:44;43.20;;;26.95;;
9815;SDS011;4947;44.526;11.360;2023-02-20T10:10:17;43.65;;;26.63;;
9815;SDS011;4947;44.526;11.360;2023-02-20T10:12:50;53.42;;;27.73;;
9815;SDS011;4947;44.526;11.360;2023-02-20T10:15:28;42.35;;;26.30;;
9815;SDS011;4947;44.526;11.360;2023-02-20T10:18:07;52.05;;;26.42;;
9815;SDS011;4947;44.526;11.360;2023-02-20T10:20:47;51.58;;;27.08;;
9815;SDS011;4947;44.526;11.360;2023-02-20T10:23:23;45.88;;;28.15;;
9815;SDS011;4947;44.526;11.360;2023-02-20T10:25:57;54.40;;;27.15;;
9815;SDS011;4947;44.526;11.360;2023-02-20T10:28:28;58.83;;;28.10;;
9815;SDS011;4947;44.526;11.360;2023-02-20T10:30:56;46.00;;;27.33;;
9815;SDS011;4947;44.526;11.360;2023-02-20T10:33:27;51.88;;;27.05;;
9815;SDS011;4947;44.526;11.360;2023-02-20T10:36:01;44.60;;;26.67;;
9815;SDS011;4947;44.526;11.360;2023-02-20T10:38:37;43.25;;;25.23;;
9815;SDS011;4947;44.526;11.360;2023-02-20T10:41:09;52.92;;;27.40;;
9815;SDS011;4947;44.526;11.360;2023-02-20T10:43:46;45.92;;;26.63;;
9815;SDS011;4947;44.526;11.360;2023-02-20T10:46:19;47.88;;;28.52;;
9815;SDS011;4947;44.526;11.360;2023-02-20T10:48:56;50.38;;;26.63;;
9815;SDS011;4947;44.526;11.360;2023-02-20T10:51:31;46.17;;;26.27;;
9815;SDS011;4947;44.526;11.360;2023-02-20T10:54:06;46.88;;;26.88;;
9815;SDS011;4947;44.526;11.360;2023-02-20T10:56:38;48.92;;;27.27;;
9815;SDS011;4947;44.526;11.360;2023-02-20T10:59:11;48.33;;;27.30;;
9815;SDS011;4947;44.526;11.360;2023-02-20T11:01:44;43.97;;;26.05;;
9815;SDS011;4947;44.526;11.360;2023-02-20T11:04:16;47.83;;;27.15;;
9815;SDS011;4947;44.526;11.360;2023-02-20T11:06:51;52.42;;;26.30;;
9815;SDS011;4947;44.526;11.360;2023-02-20T11:09:23;47.45;;;26.65;;
9815;SDS011;4947;44.526;11.360;2023-02-20T11:11:51;49.38;;;26.15;;
9815;SDS011;4947;44.526;11.360;2023-02-20T11:14:21;57.65;;;26.70;;
9815;SDS011;4947;44.526;11.360;2023-02-20T11:16:53;45.92;;;26.83;;
9815;SDS011;4947;44.526;11.360;2023-02-20T11:19:27;42.13;;;24.00;;
9815;SDS011;4947;44.526;11.360;2023-02-20T11:21:59;39.95;;;23.45;;
9815;SDS011;4947;44.526;11.360;2023-02-20T11:24:31;48.30;;;24.13;;
9815;SDS011;4947;44.526;11.360;2023-02-20T11:27:02;47.50;;;25.55;;
9815;SDS011;4947;44.526;11.360;2023-02-20T11:32:28;47.08;;;24.02;;
9815;SDS011;4947;44.526;11.360;2023-02-20T11:35:05;43.33;;;24.20;;
9815;SDS011;4947;44.526;11.360;2023-02-20T11:40:59;40.13;;;23.77;;
9815;SDS011;4947;44.526;11.360;2023-02-20T11:43:33;48.20;;;27.00;;
9815;SDS011;4947;44.526;11.360;2023-02-20T11:46:07;52.60;;;29.88;;
9815;SDS011;4947;44.526;11.360;2023-02-20T11:48:35;45.00;;;25.88;;
9815;SDS011;4947;44.526;11.360;2023-02-20T11:51:04;44.00;;;24.35;;
9815;SDS011;4947;44.526;11.360;2023-02-20T11:53:33;49.65;;;27.13;;
9815;SDS011;4947;44.526;11.360;2023-02-20T11:56:07;50.40;;;25.98;;
9815;SDS011;4947;44.526;11.360;2023-02-20T11:58:37;36.20;;;22.95;;
9815;SDS011;4947;44.526;11.360;2023-02-20T12:01:06;39.80;;;23.33;;
9815;SDS011;4947;44.526;11.360;2023-02-20T12:03:53;40.45;;;23.25;;
9815;SDS011;4947;44.526;11.360;2023-02-20T12:06:38;44.25;;;22.70;;
9815;SDS011;4947;44.526;11.360;2023-02-20T12:09:11;37.38;;;23.02;;
9815;SDS011;4947;44.526;11.360;2023-02-20T12:11:43;41.40;;;22.80;;
9815;SDS011;4947;44.526;11.360;2023-02-20T12:14:11;47.80;;;24.55;;
9815;SDS011;4947;44.526;11.360;2023-02-20T12:16:51;40.28;;;23.35;;
9815;SDS011;4947;44.526;11.360;2023-02-20T12:19:34;41.25;;;24.17;;
9815;SDS011;4947;44.526;11.360;2023-02-20T12:22:11;45.83;;;24.52;;
9815;SDS011;4947;44.526;11.360;2023-02-20T12:27:56;39.58;;;22.55;;
9815;SDS011;4947;44.526;11.360;2023-02-20T12:30:35;40.60;;;22.98;;
9815;SDS011;4947;44.526;11.360;2023-02-20T12:33:33;41.40;;;23.98;;
9815;SDS011;4947;44.526;11.360;2023-02-20T12:36:16;44.42;;;23.70;;
9815;SDS011;4947;44.526;11.360;2023-02-20T12:38:53;52.13;;;24.83;;
9815;SDS011;4947;44.526;11.360;2023-02-20T12:41:38;40.40;;;23.13;;
9815;SDS011;4947;44.526;11.360;2023-02-20T12:44:22;34.33;;;20.77;;
9815;SDS011;4947;44.526;11.360;2023-02-20T12:47:21;40.03;;;22.42;;
9815;SDS011;4947;44.526;11.360;2023-02-20T12:49:57;40.15;;;22.52;;
9815;SDS011;4947;44.526;11.360;2023-02-20T12:52:56;41.10;;;20.58;;
9815;SDS011;4947;44.526;11.360;2023-02-20T12:55:56;38.67;;;21.95;;
9815;SDS011;4947;44.526;11.360;2023-02-20T12:58:44;37.08;;;23.05;;
9815;SDS011;4947;44.526;11.360;2023-02-20T13:01:16;36.00;;;21.17;;
9815;SDS011;4947;44.526;11.360;2023-02-20T13:03:48;42.22;;;22.42;;
9815;SDS011;4947;44.526;11.360;2023-02-20T13:06:26;40.00;;;22.05;;
9815;SDS011;4947;44.526;11.360;2023-02-20T13:09:00;39.22;;;21.38;;
9815;SDS011;4947;44.526;11.360;2023-02-20T13:11:33;36.63;;;21.50;;
9815;SDS011;4947;44.526;11.360;2023-02-20T13:14:13;39.38;;;22.67;;
9815;SDS011;4947;44.526;11.360;2023-02-20T13:16:56;44.10;;;22.98;;
9815;SDS011;4947;44.526;11.360;2023-02-20T13:19:29;39.35;;;21.75;;
9815;SDS011;4947;44.526;11.360;2023-02-20T13:22:02;42.83;;;23.33;;
9815;SDS011;4947;44.526;11.360;2023-02-20T13:24:32;48.40;;;23.42;;
9815;SDS011;4947;44.526;11.360;2023-02-20T13:27:01;38.00;;;21.52;;
9815;SDS011;4947;44.526;11.360;2023-02-20T13:29:35;43.63;;;22.08;;
9815;SDS011;4947;44.526;11.360;2023-02-20T13:34:50;39.35;;;24.17;;
9815;SDS011;4947;44.526;11.360;2023-02-20T13:40:36;43.78;;;22.75;;
9815;SDS011;4947;44.526;11.360;2023-02-20T13:48:54;43.30;;;23.35;;
9815;SDS011;4947;44.526;11.360;2023-02-20T13:51:29;41.10;;;23.38;;
9815;SDS011;4947;44.526;11.360;2023-02-20T13:54:01;39.53;;;20.00;;
9815;SDS011;4947;44.526;11.360;2023-02-20T13:56:44;32.92;;;20.25;;
9815;SDS011;4947;44.526;11.360;2023-02-20T13:59:15;28.13;;;16.08;;
9815;SDS011;4947;44.526;11.360;2023-02-20T14:02:11;31.67;;;18.25;;
9815;SDS011;4947;44.526;11.360;2023-02-20T14:04:51;30.23;;;17.00;;
9815;SDS011;4947;44.526;11.360;2023-02-20T14:07:29;30.40;;;16.52;;
9815;SDS011;4947;44.526;11.360;2023-02-20T14:09:59;35.13;;;16.85;;
9815;SDS011;4947;44.526;11.360;2023-02-20T14:12:28;30.35;;;16.33;;
9815;SDS011;4947;44.526;11.360;2023-02-20T14:14:55;32.75;;;17.30;;
9815;SDS011;4947;44.526;11.360;2023-02-20T14:17:25;27.60;;;16.92;;
9815;SDS011;4947;44.526;11.360;2023-02-20T14:19:55;30.10;;;17.73;;
9815;SDS011;4947;44.526;11.360;2023-02-20T14:22:26;29.13;;;17.52;;
9815;SDS011;4947;44.526;11.360;2023-02-20T14:25:01;33.95;;;17.42;;
9815;SDS011;4947;44.526;11.360;2023-02-20T14:27:41;27.05;;;15.98;;
9815;SDS011;4947;44.526;11.360;2023-02-20T14:30:11;30.00;;;17.20;;
9815;SDS011;4947;44.526;11.360;2023-02-20T14:32:43;33.05;;;17.23;;
9815;SDS011;4947;44.526;11.360;2023-02-20T14:35:15;33.63;;;17.52;;
9815;SDS011;4947;44.526;11.360;2023-02-20T14:38:00;29.50;;;17.73;;
9815;SDS011;4947;44.526;11.360;2023-02-20T14:40:37;33.72;;;17.35;;
9815;SDS011;4947;44.526;11.360;2023-02-20T14:43:08;30.95;;;16.73;;
9815;SDS011;4947;44.526;11.360;2023-02-20T14:45:43;30.27;;;17.83;;
9815;SDS011;4947;44.526;11.360;2023-02-20T14:48:22;34.35;;;17.90;;
9815;SDS011;4947;44.526;11.360;2023-02-20T14:51:05;34.95;;;18.40;;
9815;SDS011;4947;44.526;11.360;2023-02-20T14:53:39;33.95;;;18.70;;
9815;SDS011;4947;44.526;11.360;2023-02-20T14:56:08;30.90;;;18.25;;
9815;SDS011;4947;44.526;11.360;2023-02-20T14:58:40;33.40;;;17.80;;
9815;SDS011;4947;44.526;11.360;2023-02-20T15:01:18;29.88;;;16.92;;
9815;SDS011;4947;44.526;11.360;2023-02-20T15:04:01;35.38;;;17.85;;
9815;SDS011;4947;44.526;11.360;2023-02-20T15:06:32;34.15;;;17.60;;
9815;SDS011;4947;44.526;11.360;2023-02-20T15:09:01;35.40;;;16.70;;
9815;SDS011;4947;44.526;11.360;2023-02-20T15:11:29;28.45;;;16.52;;
9815;SDS011;4947;44.526;11.360;2023-02-20T15:13:58;29.55;;;17.60;;
9815;SDS011;4947;44.526;11.360;2023-02-20T15:16:27;31.27;;;16.10;;
9815;SDS011;4947;44.526;11.360;2023-02-20T15:18:56;31.77;;;16.95;;
9815;SDS011;4947;44.526;11.360;2023-02-20T15:21:33;34.72;;;17.73;;
9815;SDS011;4947;44.526;11.360;2023-02-20T15:24:13;34.83;;;18.60;;
9815;SDS011;4947;44.526;11.360;2023-02-20T15:26:54;33.35;;;18.10;;
9815;SDS011;4947;44.526;11.360;2023-02-20T15:29:37;38.88;;;19.15;;